METAR Data
IDs: Format: Raw Decoded Include TAF

Data at: 1627 UTC 04 Aug 2021

EGBB 041620Z 18006KT 150V220 CAVOK 21/10 Q1011

EGBJ 041620Z 16004KT 9999 VCSH FEW036 FEW040TCU 22/12 Q1011

EGVN 041550Z 15004KT CAVOK 22/07 Q1011 NOSIG RMK BLACKBLU BLU

EGTK 041620Z 20003KT CAVOK 23/09 Q1011

EGWC 041050Z 22005KT 9999 BKN060 SCT065TCU 21/// Q1013 RMK BLU

EGTC 041520Z VRB03KT CAVOK 22/09 Q1012

EGNX 041620Z 00000KT CAVOK 20/12 Q1011